Sea Drift — WDC2818 — position and weather

sailwx.info

Track history (hours):
 
Tides and Currents Weather Stations Pressure Air Temp Water Temp Dewpoint Dewpoint Depression Visibility Wind Speed Wind Dir Waves Ship Positions

Sea Drift

Owner: Marquette Transportation Company Gulf-Inland, LLC, Jefferson, LA. More information available from US FCC via Universal Licensing System and Coast Guard Vessel Documentation Center.

Last reported at 2015-May-23 19:18 UTC. Time now 2015-May-24 05:11 UTC.
Position N 29°22' W 094°51'.

Length 23 m; draft 3 m.

Type: Towing. MMSI: 366998080.

Date/timePositionNaut miles runAvg speedWind from/ knotsBaromVisibWave heightAir tempDewpointWater temp
2015-May-23 19:18N 29°22' W 094°51'6 0.9
2015-May-23 12:17N 29°29' W 094°52'3 4.5
2015-May-23 11:33N 29°32' W 094°54'5 5.1
2015-May-23 10:34N 29°36' W 094°57'6 6.4
2015-May-23 09:34N 29°42' W 094°60'6 6.2
2015-May-23 08:33N 29°46' W 095°05'1 0.7
2015-May-23 07:30N 29°46' W 095°06'0 0.0
2015-May-23 06:33N 29°46' W 095°06'0 0.1
2015-May-23 05:33N 29°46' W 095°06'2 1.8
2015-May-23 04:33N 29°45' W 095°04'3 3.3
2015-May-23 03:33N 29°43' W 095°01'5 4.7
2015-May-23 02:33N 29°39' W 094°58'6 5.7
2015-May-23 01:33N 29°34' W 094°55'6 5.7
2015-May-23 00:30N 29°29' W 094°51'2 0.1
2015-May-21 11:27N 29°31' W 094°53'6 6.2
2015-May-21 10:33N 29°35' W 094°56'6 6.2
2015-May-21 09:33N 29°41' W 094°59'6 5.5
2015-May-21 08:33N 29°45' W 095°04'2 2.5
2015-May-21 07:33N 29°47' W 095°04'0 0.4
2015-May-21 06:33N 29°47' W 095°04'1 1.2
2015-May-21 05:33N 29°46' W 095°05'1 1.4
2015-May-21 04:32N 29°45' W 095°06'3 2.8
2015-May-21 03:33N 29°44' W 095°09'5 4.5
2015-May-21 02:33N 29°44' W 095°14'5 4.8
2015-May-21 01:33N 29°44' W 095°08'3 2.7
2015-May-21 00:32N 29°46' W 095°06'1 1.0
2015-May-20 23:33N 29°45' W 095°06'3 3.3
2015-May-20 22:33N 29°44' W 095°10'0 0.2
2015-May-20 21:33N 29°44' W 095°10'0 0.0
2015-May-20 20:33N 29°44' W 095°10'4 3.9
2015-May-20 19:33N 29°46' W 095°05'0 0.1
2015-May-20 18:33N 29°46' W 095°05'0 0.2
2015-May-20 17:32N 29°46' W 095°06'0 0.0
2015-May-20 16:31N 29°46' W 095°06'4 4.0
2015-May-20 15:33N 29°45' W 095°10'4 3.7
2015-May-20 14:33N 29°44' W 095°14'5 4.9
2015-May-20 13:33N 29°44' W 095°08'5 4.6
2015-May-20 12:33N 29°47' W 095°04'2 1.6
2015-May-20 11:26N 29°46' W 095°06'1 1.3
2015-May-20 10:33N 29°45' W 095°06'1 1.1
2015-May-20 09:33N 29°46' W 095°06'0 0.0
2015-May-20 08:33N 29°46' W 095°06'0 0.0
2015-May-20 07:33N 29°46' W 095°06'0 0.0
2015-May-20 06:33N 29°46' W 095°06'0 0.0
2015-May-20 05:33N 29°46' W 095°06'0 0.0
2015-May-20 04:33N 29°46' W 095°06'0 0.0
2015-May-20 03:33N 29°46' W 095°06'0 0.0
2015-May-20 02:33N 29°46' W 095°06'0 0.0
2015-May-20 01:33N 29°46' W 095°06'0 0.0
2015-May-20 00:33N 29°46' W 095°06'1 1.5
2015-May-19 23:33N 29°46' W 095°05'1 1.0
2015-May-19 22:33N 29°47' W 095°04'2 1.9
2015-May-19 21:33N 29°45' W 095°06'0 0.4
2015-May-19 20:33N 29°46' W 095°06'0 0.0
2015-May-19 19:33N 29°46' W 095°06'0 0.0
2015-May-19 18:33N 29°46' W 095°06'2 2.0
2015-May-19 17:33N 29°45' W 095°04'6 5.8
2015-May-19 16:33N 29°41' W 094°59'8 7.5
2015-May-19 15:33N 29°34' W 094°55'9 8.9
2015-May-19 14:33N 29°26' W 094°50'5 1.1
2015-May-19 10:09N 29°21' W 094°49'2 0.1
2015-May-18 14:19N 29°22' W 094°51'8 1.9
2015-May-18 10:14N 29°30' W 094°52'5 7.3
2015-May-18 09:33N 29°34' W 094°55'8 7.6
2015-May-18 08:33N 29°41' W 094°59'7 6.7
2015-May-18 07:33N 29°46' W 095°05'1 1.4
2015-May-18 06:33N 29°47' W 095°04'0 0.4
2015-May-18 05:33N 29°47' W 095°04'2 2.1
2015-May-18 04:32N 29°46' W 095°06'4 3.7
2015-May-18 03:33N 29°45' W 095°10'3 3.2
2015-May-18 02:32N 29°45' W 095°06'4 4.3
2015-May-18 01:33N 29°44' W 095°01'0 0.0
2015-May-18 00:33N 29°44' W 095°01'4 3.8
2015-May-17 23:33N 29°46' W 095°05'4 4.1
2015-May-17 22:33N 29°45' W 095°10'4 3.7
2015-May-17 21:33N 29°45' W 095°06'2 1.9
2015-May-17 20:33N 29°47' W 095°04'0 0.0
2015-May-17 19:33N 29°47' W 095°04'0 0.0
2015-May-17 18:33N 29°47' W 095°04'0 0.0
2015-May-17 17:33N 29°47' W 095°04'2 1.5
2015-May-17 16:33N 29°46' W 095°06'0 0.0
2015-May-17 15:29N 29°46' W 095°06'4 4.1
2015-May-17 14:33N 29°45' W 095°10'0 0.2
2015-May-17 13:33N 29°45' W 095°10'4 4.1
2015-May-17 12:33N 29°46' W 095°05'0 0.5
2015-May-17 11:33N 29°46' W 095°06'6 6.3
2015-May-17 10:33N 29°42' W 095°00'7 7.3
2015-May-17 09:33N 29°36' W 094°56'9 8.2
2015-May-17 08:24N 29°27' W 094°51'6 0.1
2015-May-15 13:33N 29°32' W 094°54'8 8.6
2015-May-15 12:33N 29°40' W 094°59'8 7.9
2015-May-15 11:32N 29°46' W 095°05'1 0.5
2015-May-15 10:32N 29°46' W 095°06'0 0.1
2015-May-15 09:33N 29°46' W 095°06'5 5.4
2015-May-15 08:33N 29°42' W 095°01'7 6.5
2015-May-15 07:33N 29°37' W 094°57'7 6.9
2015-May-15 06:33N 29°31' W 094°53'7 6.9
2015-May-15 05:33N 29°25' W 094°49'4 3.0
2015-May-15 04:14N 29°21' W 094°49'0 0.0
2015-May-15 03:23N 29°21' W 094°49'3 0.1
2015-May-14 03:08N 29°22' W 094°47'10 6.1
2015-May-14 01:31N 29°31' W 094°53'6 6.1
2015-May-14 00:34N 29°36' W 094°57'7 6.5
2015-May-13 23:34N 29°42' W 094°60'6 6.1
2015-May-13 22:32N 29°46' W 095°05'1 0.3
2015-May-13 20:07N 29°46' W 095°06'0 0.0
2015-May-13 19:21N 29°46' W 095°06'  
Track history (hours):
 
Tides and Currents Weather Stations Pressure Air Temp Water Temp Dewpoint Dewpoint Depression Visibility Wind Speed Wind Dir Waves Ship Positions

Sea Drift

Owner: Marquette Transportation Company Gulf-Inland, LLC, Jefferson, LA. More information available from US FCC via Universal Licensing System and Coast Guard Vessel Documentation Center.

Last reported at 2015-May-23 19:18 UTC. Time now 2015-May-24 05:11 UTC.
Position N 29°22' W 094°51'.

Length 23 m; draft 3 m.

Type: Towing. MMSI: 366998080.

Date/timePositionNaut miles runAvg speedWind from/ knotsBaromVisibWave heightAir tempDewpointWater temp
2015-May-23 19:18N 29°22' W 094°51'6 0.9
2015-May-23 12:17N 29°29' W 094°52'3 4.5
2015-May-23 11:33N 29°32' W 094°54'5 5.1
2015-May-23 10:34N 29°36' W 094°57'6 6.4
2015-May-23 09:34N 29°42' W 094°60'6 6.2
2015-May-23 08:33N 29°46' W 095°05'1 0.7
2015-May-23 07:30N 29°46' W 095°06'0 0.0
2015-May-23 06:33N 29°46' W 095°06'0 0.1
2015-May-23 05:33N 29°46' W 095°06'2 1.8
2015-May-23 04:33N 29°45' W 095°04'3 3.3
2015-May-23 03:33N 29°43' W 095°01'5 4.7
2015-May-23 02:33N 29°39' W 094°58'6 5.7
2015-May-23 01:33N 29°34' W 094°55'6 5.7
2015-May-23 00:30N 29°29' W 094°51'2 0.1
2015-May-21 11:27N 29°31' W 094°53'6 6.2
2015-May-21 10:33N 29°35' W 094°56'6 6.2
2015-May-21 09:33N 29°41' W 094°59'6 5.5
2015-May-21 08:33N 29°45' W 095°04'2 2.5
2015-May-21 07:33N 29°47' W 095°04'0 0.4
2015-May-21 06:33N 29°47' W 095°04'1 1.2
2015-May-21 05:33N 29°46' W 095°05'1 1.4
2015-May-21 04:32N 29°45' W 095°06'3 2.8
2015-May-21 03:33N 29°44' W 095°09'5 4.5
2015-May-21 02:33N 29°44' W 095°14'5 4.8
2015-May-21 01:33N 29°44' W 095°08'3 2.7
2015-May-21 00:32N 29°46' W 095°06'1 1.0
2015-May-20 23:33N 29°45' W 095°06'3 3.3
2015-May-20 22:33N 29°44' W 095°10'0 0.2
2015-May-20 21:33N 29°44' W 095°10'0 0.0
2015-May-20 20:33N 29°44' W 095°10'4 3.9
2015-May-20 19:33N 29°46' W 095°05'0 0.1
2015-May-20 18:33N 29°46' W 095°05'0 0.2
2015-May-20 17:32N 29°46' W 095°06'0 0.0
2015-May-20 16:31N 29°46' W 095°06'4 4.0
2015-May-20 15:33N 29°45' W 095°10'4 3.7
2015-May-20 14:33N 29°44' W 095°14'5 4.9
2015-May-20 13:33N 29°44' W 095°08'5 4.6
2015-May-20 12:33N 29°47' W 095°04'2 1.6
2015-May-20 11:26N 29°46' W 095°06'1 1.3
2015-May-20 10:33N 29°45' W 095°06'1 1.1
2015-May-20 09:33N 29°46' W 095°06'0 0.0
2015-May-20 08:33N 29°46' W 095°06'0 0.0
2015-May-20 07:33N 29°46' W 095°06'0 0.0
2015-May-20 06:33N 29°46' W 095°06'0 0.0
2015-May-20 05:33N 29°46' W 095°06'0 0.0
2015-May-20 04:33N 29°46' W 095°06'0 0.0
2015-May-20 03:33N 29°46' W 095°06'0 0.0
2015-May-20 02:33N 29°46' W 095°06'0 0.0
2015-May-20 01:33N 29°46' W 095°06'0 0.0
2015-May-20 00:33N 29°46' W 095°06'1 1.5
2015-May-19 23:33N 29°46' W 095°05'1 1.0
2015-May-19 22:33N 29°47' W 095°04'2 1.9
2015-May-19 21:33N 29°45' W 095°06'0 0.4
2015-May-19 20:33N 29°46' W 095°06'0 0.0
2015-May-19 19:33N 29°46' W 095°06'0 0.0
2015-May-19 18:33N 29°46' W 095°06'2 2.0
2015-May-19 17:33N 29°45' W 095°04'6 5.8
2015-May-19 16:33N 29°41' W 094°59'8 7.5
2015-May-19 15:33N 29°34' W 094°55'9 8.9
2015-May-19 14:33N 29°26' W 094°50'5 1.1
2015-May-19 10:09N 29°21' W 094°49'2 0.1
2015-May-18 14:19N 29°22' W 094°51'8 1.9
2015-May-18 10:14N 29°30' W 094°52'5 7.3
2015-May-18 09:33N 29°34' W 094°55'8 7.6
2015-May-18 08:33N 29°41' W 094°59'7 6.7
2015-May-18 07:33N 29°46' W 095°05'1 1.4
2015-May-18 06:33N 29°47' W 095°04'0 0.4
2015-May-18 05:33N 29°47' W 095°04'2 2.1
2015-May-18 04:32N 29°46' W 095°06'4 3.7
2015-May-18 03:33N 29°45' W 095°10'3 3.2
2015-May-18 02:32N 29°45' W 095°06'4 4.3
2015-May-18 01:33N 29°44' W 095°01'0 0.0
2015-May-18 00:33N 29°44' W 095°01'4 3.8
2015-May-17 23:33N 29°46' W 095°05'4 4.1
2015-May-17 22:33N 29°45' W 095°10'4 3.7
2015-May-17 21:33N 29°45' W 095°06'2 1.9
2015-May-17 20:33N 29°47' W 095°04'0 0.0
2015-May-17 19:33N 29°47' W 095°04'0 0.0
2015-May-17 18:33N 29°47' W 095°04'0 0.0
2015-May-17 17:33N 29°47' W 095°04'2 1.5
2015-May-17 16:33N 29°46' W 095°06'0 0.0
2015-May-17 15:29N 29°46' W 095°06'4 4.1
2015-May-17 14:33N 29°45' W 095°10'0 0.2
2015-May-17 13:33N 29°45' W 095°10'4 4.1
2015-May-17 12:33N 29°46' W 095°05'0 0.5
2015-May-17 11:33N 29°46' W 095°06'6 6.3
2015-May-17 10:33N 29°42' W 095°00'7 7.3
2015-May-17 09:33N 29°36' W 094°56'9 8.2
2015-May-17 08:24N 29°27' W 094°51'6 0.1
2015-May-15 13:33N 29°32' W 094°54'8 8.6
2015-May-15 12:33N 29°40' W 094°59'8 7.9
2015-May-15 11:32N 29°46' W 095°05'1 0.5
2015-May-15 10:32N 29°46' W 095°06'0 0.1
2015-May-15 09:33N 29°46' W 095°06'5 5.4
2015-May-15 08:33N 29°42' W 095°01'7 6.5
2015-May-15 07:33N 29°37' W 094°57'7 6.9
2015-May-15 06:33N 29°31' W 094°53'7 6.9
2015-May-15 05:33N 29°25' W 094°49'4 3.0
2015-May-15 04:14N 29°21' W 094°49'0 0.0
2015-May-15 03:23N 29°21' W 094°49'3 0.1
2015-May-14 03:08N 29°22' W 094°47'10 6.1
2015-May-14 01:31N 29°31' W 094°53'6 6.1
2015-May-14 00:34N 29°36' W 094°57'7 6.5
2015-May-13 23:34N 29°42' W 094°60'6 6.1
2015-May-13 22:32N 29°46' W 095°05'1 0.3
2015-May-13 20:07N 29°46' W 095°06'0 0.0
2015-May-13 19:21N 29°46' W 095°06'  

Dump ship's entire track history